Time;durP1;ratioP1;P1;durP2;ratioP2;P2;SDS_P1;SDS_P2;PMS_P1;PMS_P2;Temp;Humidity;BMP_temperature;BMP_pressure;BME280_temperature;BME280_humidity;BME280_pressure;Samples;Min_cycle;Max_cycle;Signal;HPM_P1;HPM_P2
2023/01/06 00:02:07;;;;;;;;;;;11.50;99.90;;;;;;5050790;28;22484;-65
2023/01/06 00:04:33;;;;;;;;;;;11.50;99.90;;;;;;5046593;28;19919;-65
2023/01/06 00:06:58;;;;;;;;;;;11.50;99.90;;;;;;5048340;28;20365;-65
2023/01/06 00:09:24;;;;;;;;;;;11.50;99.90;;;;;;5057530;28;20378;-64
2023/01/06 00:11:49;;;;;;;;;;;11.50;99.90;;;;;;5054966;28;20412;-63
2023/01/06 00:14:15;;;;;;;;;;;11.40;99.90;;;;;;5050807;28;19963;-64
2023/01/06 00:16:40;;;;;;;;;;;11.40;99.90;;;;;;5046931;28;19958;-63
2023/01/06 00:19:05;;;;;;;;;;;11.40;99.90;;;;;;5050367;28;19913;-64
2023/01/06 00:21:31;;;;;;;;;;;11.30;99.90;;;;;;5048849;28;19913;-64
2023/01/06 00:23:56;;;;;;;;;;;11.30;99.90;;;;;;5046772;28;19917;-64
2023/01/06 00:26:22;;;;;;;;;;;11.30;99.90;;;;;;5063465;28;19915;-64
2023/01/06 00:28:51;;;;;;;;;;;11.20;99.90;;;;;;5051193;28;19913;-64
2023/01/06 00:31:16;;;;;;;;;;;11.30;99.90;;;;;;5048278;28;19957;-64
2023/01/06 00:33:42;;;;;;;;;;;11.20;99.90;;;;;;5046027;28;19924;-63
2023/01/06 00:36:08;;;;;;;;;;;11.30;99.90;;;;;;5040611;28;19925;-64
2023/01/06 00:38:36;;;;;;;;;;;11.20;99.90;;;;;;5048483;28;19913;-64
2023/01/06 00:41:03;;;;;;;;;;;11.20;99.90;;;;;;5044788;28;19913;-62
2023/01/06 00:43:30;;;;;;;;;;;11.20;99.90;;;;;;5051905;28;19925;-64
2023/01/06 00:45:55;;;;;;;;;;;11.20;99.90;;;;;;5047358;28;19912;-64
2023/01/06 00:48:21;;;;;;;;;;;11.20;99.90;;;;;;5050738;28;20492;-64
2023/01/06 00:50:46;;;;;;;;;;;11.20;99.90;;;;;;5039969;28;20389;-64
2023/01/06 00:53:12;;;;;;;;;;;11.20;99.90;;;;;;5047368;28;19920;-64
2023/01/06 00:55:37;;;;;;;;;;;11.20;99.90;;;;;;5053776;28;19999;-64
2023/01/06 00:58:03;;;;;;;;;;;11.10;99.90;;;;;;5056151;28;19921;-63
2023/01/06 01:00:28;;;;;;;;;;;11.20;99.90;;;;;;5048994;28;20029;-63
2023/01/06 01:02:53;;;;;;;;;;;11.10;99.90;;;;;;5054520;28;19979;-62
2023/01/06 01:05:19;;;;;;;;;;;11.00;99.90;;;;;;5051803;28;19935;-64
2023/01/06 01:07:44;;;;;;;;;;;11.00;99.90;;;;;;5053632;28;20362;-65
2023/01/06 01:10:10;;;;;;;;;;;11.00;99.90;;;;;;5051237;28;19919;-61
2023/01/06 01:12:36;;;;;;;;;;;11.00;99.90;;;;;;5048064;28;19959;-62
2023/01/06 01:15:02;;;;;;;;;;;11.00;99.90;;;;;;5045864;28;19956;-62
2023/01/06 01:17:29;;;;;;;;;;;11.00;99.90;;;;;;5045395;28;19921;-63
2023/01/06 01:19:56;;;;;;;;;;;11.00;99.90;;;;;;5049067;28;19913;-61
2023/01/06 01:22:22;;;;;;;;;;;11.00;99.90;;;;;;5049429;28;20004;-63
2023/01/06 01:24:48;;;;;;;;;;;11.00;99.90;;;;;;5049652;28;19916;-62
2023/01/06 01:27:13;;;;;;;;;;;11.00;99.90;;;;;;5056857;28;19913;-64
2023/01/06 01:29:39;;;;;;;;;;;11.00;99.90;;;;;;5049796;28;19967;-63
2023/01/06 01:32:04;;;;;;;;;;;10.90;99.90;;;;;;5049593;28;20449;-64
2023/01/06 01:34:30;;;;;;;;;;;10.90;99.90;;;;;;5044995;28;20336;-64
2023/01/06 01:36:55;;;;;;;;;;;10.90;99.90;;;;;;5045263;28;20402;-63
2023/01/06 01:39:24;;;;;;;;;;;10.80;99.90;;;;;;5054081;28;19913;-61
2023/01/06 01:41:49;;;;;;;;;;;10.80;99.90;;;;;;5050323;28;19917;-60
2023/01/06 01:44:33;;;;;;;;;;;10.80;99.90;;;;;;5052367;28;20359;-63
2023/01/06 01:46:59;;;;;;;;;;;10.80;99.90;;;;;;5043878;28;19958;-63
2023/01/06 01:49:25;;;;;;;;;;;10.70;99.90;;;;;;5049861;28;19920;-62
2023/01/06 01:51:52;;;;;;;;;;;10.70;99.90;;;;;;5046495;28;19913;-60
2023/01/06 01:54:28;;;;;;;;;;;10.70;99.90;;;;;;5044822;28;19963;-63
2023/01/06 01:56:55;;;;;;;;;;;10.70;99.90;;;;;;5049544;28;20271;-64
2023/01/06 01:59:23;;;;;;;;;;;10.60;99.90;;;;;;5050280;28;19919;-62
2023/01/06 02:01:49;;;;;;;;;;;10.60;99.90;;;;;;5049781;28;20321;-61
2023/01/06 02:04:16;;;;;;;;;;;10.60;99.90;;;;;;5059366;28;19913;-64
2023/01/06 02:06:41;;;;;;;;;;;10.60;99.90;;;;;;5046774;28;19913;-63
2023/01/06 02:09:10;;;;;;;;;;;10.50;99.90;;;;;;5052895;28;19923;-64
2023/01/06 02:11:36;;;;;;;;;;;10.60;99.90;;;;;;5047754;28;19916;-63
2023/01/06 02:14:08;;;;;;;;;;;10.60;99.90;;;;;;5043684;28;19913;-61
2023/01/06 02:16:39;;;;;;;;;;;10.60;99.90;;;;;;5045192;28;19919;-61
2023/01/06 02:19:27;;;;;;;;;;;10.60;99.90;;;;;;5047170;28;20744;-61
2023/01/06 02:22:13;;;;;;;;;;;10.60;99.90;;;;;;5052999;28;20282;-62
2023/01/06 02:24:57;;;;;;;;;;;10.60;99.90;;;;;;5050236;28;19912;-62
2023/01/06 02:27:35;;;;;;;;;;;10.60;99.90;;;;;;5044599;28;19912;-63
2023/01/06 02:30:04;;;;;;;;;;;10.60;99.90;;;;;;5045501;28;19963;-62
2023/01/06 02:32:34;;;;;;;;;;;10.60;99.90;;;;;;5050051;28;20687;-61
2023/01/06 02:35:06;;;;;;;;;;;10.50;99.90;;;;;;5043232;28;20004;-64
2023/01/06 02:37:43;;;;;;;;;;;10.50;99.90;;;;;;5048694;28;20019;-63
2023/01/06 02:40:14;;;;;;;;;;;10.50;99.90;;;;;;5051245;28;20444;-61
2023/01/06 02:42:58;;;;;;;;;;;10.50;99.90;;;;;;5049191;28;19952;-61
2023/01/06 02:45:30;;;;;;;;;;;10.50;99.90;;;;;;5044856;28;19968;-63
2023/01/06 02:47:58;;;;;;;;;;;10.50;99.90;;;;;;5050995;28;19943;-64
2023/01/06 02:50:36;;;;;;;;;;;10.50;99.90;;;;;;5049478;28;20374;-62
2023/01/06 02:53:05;;;;;;;;;;;10.50;99.90;;;;;;5043097;28;19913;-63
2023/01/06 02:55:36;;;;;;;;;;;10.50;99.90;;;;;;5053296;28;19966;-61
2023/01/06 02:58:08;;;;;;;;;;;10.60;99.90;;;;;;5050350;28;20004;-62
2023/01/06 03:00:42;;;;;;;;;;;10.60;99.90;;;;;;5041306;28;19913;-62
2023/01/06 03:03:09;;;;;;;;;;;10.50;99.90;;;;;;5042892;28;20153;-62
2023/01/06 03:05:35;;;;;;;;;;;10.50;99.90;;;;;;5048214;28;19917;-63
2023/01/06 03:08:03;;;;;;;;;;;10.50;99.90;;;;;;5043923;28;19913;-63
2023/01/06 03:10:29;;;;;;;;;;;10.50;99.90;;;;;;5046837;28;19913;-63
2023/01/06 03:13:06;;;;;;;;;;;10.50;99.90;;;;;;5040587;28;20387;-62
2023/01/06 03:15:32;;;;;;;;;;;10.40;99.90;;;;;;5047867;28;20325;-62
2023/01/06 03:17:57;;;;;;;;;;;10.50;99.90;;;;;;5049126;28;19912;-63
2023/01/06 03:20:23;;;;;;;;;;;10.40;99.90;;;;;;5057659;28;19966;-63
2023/01/06 03:22:48;;;;;;;;;;;10.50;99.90;;;;;;5048330;28;19913;-63
2023/01/06 03:25:14;;;;;;;;;;;10.40;99.90;;;;;;5051855;28;19970;-62
2023/01/06 03:27:40;;;;;;;;;;;10.30;99.90;;;;;;5049551;28;19964;-64
2023/01/06 03:30:08;;;;;;;;;;;10.30;99.90;;;;;;5051902;28;20328;-63
2023/01/06 03:32:38;;;;;;;;;;;10.40;99.90;;;;;;5048784;28;19968;-62
2023/01/06 03:35:22;;;;;;;;;;;10.30;99.90;;;;;;5052211;28;19913;-62
2023/01/06 03:37:50;;;;;;;;;;;10.30;99.90;;;;;;5050200;28;19971;-61
2023/01/06 03:40:26;;;;;;;;;;;10.40;99.90;;;;;;5049621;28;19917;-61
2023/01/06 03:43:15;;;;;;;;;;;10.50;99.90;;;;;;5057361;22;19933;-70
2023/01/06 03:46:09;;;;;;;;;;;10.50;99.90;;;;;;5043173;28;20532;-70
2023/01/06 03:48:53;;;;;;;;;;;10.50;99.90;;;;;;5050784;28;19963;-69
2023/01/06 03:51:38;;;;;;;;;;;10.50;99.90;;;;;;5049618;28;20401;-68
2023/01/06 03:54:26;;;;;;;;;;;10.40;99.90;;;;;;5051668;28;19921;-70
2023/01/06 03:57:03;;;;;;;;;;;10.30;99.90;;;;;;5035977;28;19920;-69
2023/01/06 03:59:31;;;;;;;;;;;10.40;99.90;;;;;;5045124;28;20400;-71
2023/01/06 04:01:57;;;;;;;;;;;10.30;99.90;;;;;;5050192;28;20298;-71
2023/01/06 04:04:22;;;;;;;;;;;10.40;99.90;;;;;;5043869;28;20422;-70
2023/01/06 04:06:48;;;;;;;;;;;10.40;99.90;;;;;;5052591;28;19945;-71
2023/01/06 04:09:13;;;;;;;;;;;10.40;99.90;;;;;;5053886;28;19920;-70
2023/01/06 04:14:23;;;;;;;;;;;10.30;99.90;;;;;;5051465;28;19927;-70
2023/01/06 04:16:48;;;;;;;;;;;10.30;99.90;;;;;;5048149;28;19917;-71
2023/01/06 04:19:14;;;;;;;;;;;10.30;99.90;;;;;;5044987;28;19913;-70
2023/01/06 04:21:39;;;;;;;;;;;10.40;99.90;;;;;;5046410;28;19935;-69
2023/01/06 04:24:05;;;;;;;;;;;10.40;99.90;;;;;;5049493;28;19924;-72
2023/01/06 04:26:32;;;;;;;;;;;10.40;99.90;;;;;;5050233;28;19916;-69
2023/01/06 04:28:58;;;;;;;;;;;10.40;99.90;;;;;;5051588;28;19913;-69
2023/01/06 04:31:24;;;;;;;;;;;10.40;99.90;;;;;;5055334;28;19919;-69
2023/01/06 04:33:49;;;;;;;;;;;10.40;99.90;;;;;;5043407;28;20378;-69
2023/01/06 04:36:14;;;;;;;;;;;10.40;99.90;;;;;;5047859;28;20008;-70
2023/01/06 04:38:40;;;;;;;;;;;10.40;99.90;;;;;;5052617;28;19913;-69
2023/01/06 04:41:05;;;;;;;;;;;10.40;99.90;;;;;;5046908;28;19932;-68
2023/01/06 04:43:31;;;;;;;;;;;10.40;99.90;;;;;;5057896;28;19966;-69
2023/01/06 04:45:57;;;;;;;;;;;10.40;99.90;;;;;;5048828;28;19909;-69
2023/01/06 04:48:23;;;;;;;;;;;10.30;99.90;;;;;;5058026;28;19913;-69
2023/01/06 04:50:48;;;;;;;;;;;10.30;99.90;;;;;;5044755;28;19921;-69
2023/01/06 04:53:14;;;;;;;;;;;10.30;99.90;;;;;;5046636;28;19927;-69
2023/01/06 04:55:40;;;;;;;;;;;10.30;99.90;;;;;;5043820;28;20290;-69
2023/01/06 04:58:06;;;;;;;;;;;10.30;99.90;;;;;;5057501;28;20294;-69
2023/01/06 05:00:31;;;;;;;;;;;10.30;99.90;;;;;;5049521;28;19936;-69
2023/01/06 05:02:57;;;;;;;;;;;10.20;99.90;;;;;;5047846;28;19920;-69
2023/01/06 05:05:22;;;;;;;;;;;10.30;99.90;;;;;;5049978;28;19936;-69
2023/01/06 05:07:48;;;;;;;;;;;10.30;99.90;;;;;;5053629;28;20004;-69
2023/01/06 05:10:13;;;;;;;;;;;10.30;99.90;;;;;;5052522;28;20443;-70
2023/01/06 05:12:39;;;;;;;;;;;10.30;99.90;;;;;;5054055;28;19919;-69
2023/01/06 05:15:05;;;;;;;;;;;10.30;99.90;;;;;;5049139;28;19964;-69
2023/01/06 05:17:30;;;;;;;;;;;10.30;99.90;;;;;;5055224;28;19920;-70
2023/01/06 05:19:55;;;;;;;;;;;10.40;99.90;;;;;;5051272;28;19923;-68
2023/01/06 05:22:21;;;;;;;;;;;10.40;99.90;;;;;;5050302;28;19928;-69
2023/01/06 05:24:46;;;;;;;;;;;10.50;99.90;;;;;;5046899;28;19959;-70
2023/01/06 05:27:12;;;;;;;;;;;10.50;99.90;;;;;;5050066;28;19963;-70
2023/01/06 05:29:37;;;;;;;;;;;10.50;99.90;;;;;;5048606;28;20405;-70
2023/01/06 05:32:03;;;;;;;;;;;10.60;99.90;;;;;;5053630;28;20281;-69
2023/01/06 05:34:29;;;;;;;;;;;10.60;99.90;;;;;;5046540;28;19917;-69
2023/01/06 05:36:55;;;;;;;;;;;10.50;99.90;;;;;;5051034;28;19924;-70
2023/01/06 05:39:20;;;;;;;;;;;10.60;99.90;;;;;;5048861;28;20619;-68
2023/01/06 05:41:46;;;;;;;;;;;10.50;99.90;;;;;;5043136;28;19936;-69
2023/01/06 05:44:11;;;;;;;;;;;10.60;99.90;;;;;;5043126;28;19912;-69
2023/01/06 05:46:37;;;;;;;;;;;10.60;99.90;;;;;;5042670;28;20488;-68
2023/01/06 05:49:02;;;;;;;;;;;10.60;99.90;;;;;;5048322;28;19944;-69
2023/01/06 05:51:28;;;;;;;;;;;10.60;99.90;;;;;;5046679;28;19923;-69
2023/01/06 05:53:53;;;;;;;;;;;10.60;99.90;;;;;;5046287;28;20298;-69
2023/01/06 05:56:20;;;;;;;;;;;10.50;99.90;;;;;;5048201;28;19913;-70
2023/01/06 05:58:46;;;;;;;;;;;10.50;99.90;;;;;;5047363;28;19963;-69
2023/01/06 06:01:16;;;;;;;;;;;10.70;99.90;;;;;;5046463;28;19913;-67
2023/01/06 06:03:42;;;;;;;;;;;10.80;99.90;;;;;;5047668;28;20387;-68
2023/01/06 06:06:07;;;;;;;;;;;10.80;99.90;;;;;;5043724;28;19913;-70
2023/01/06 06:08:32;;;;;;;;;;;10.80;99.90;;;;;;5050384;28;19974;-70
2023/01/06 06:11:05;;;;;;;;;;;10.80;99.90;;;;;;5044673;28;20063;-71
2023/01/06 06:13:30;;;;;;;;;;;10.80;99.90;;;;;;5052142;28;19921;-70
2023/01/06 06:16:02;;;;;;;;;;;10.80;99.90;;;;;;5046928;28;20406;-69
2023/01/06 06:18:28;;;;;;;;;;;11.00;99.90;;;;;;5054379;28;19960;-69
2023/01/06 06:20:58;;;;;;;;;;;11.00;99.90;;;;;;5049212;28;19978;-70
2023/01/06 06:23:23;;;;;;;;;;;11.00;99.90;;;;;;5050752;28;19917;-68
2023/01/06 06:25:49;;;;;;;;;;;11.00;99.90;;;;;;5045712;28;19921;-70
2023/01/06 06:28:14;;;;;;;;;;;10.80;99.90;;;;;;5046044;28;19913;-69
2023/01/06 06:30:40;;;;;;;;;;;10.80;99.90;;;;;;5047526;28;19924;-70
2023/01/06 06:33:05;;;;;;;;;;;10.80;99.90;;;;;;5045226;28;19918;-70
2023/01/06 06:35:31;;;;;;;;;;;10.80;99.90;;;;;;5047487;28;19919;-69
2023/01/06 06:37:56;;;;;;;;;;;10.90;99.90;;;;;;5048110;28;19913;-70
2023/01/06 06:40:21;;;;;;;;;;;11.00;99.90;;;;;;5048265;28;20019;-69
2023/01/06 06:42:51;;;;;;;;;;;11.00;99.90;;;;;;5040253;28;19921;-69
2023/01/06 06:45:17;;;;;;;;;;;11.00;99.90;;;;;;5051397;28;19967;-69
2023/01/06 06:47:42;;;;;;;;;;;11.00;99.90;;;;;;5043916;28;20295;-69
2023/01/06 06:50:09;;;;;;;;;;;11.00;99.90;;;;;;5052255;28;19917;-69
2023/01/06 06:52:34;;;;;;;;;;;11.00;99.90;;;;;;5046635;28;19924;-70
2023/01/06 06:55:00;;;;;;;;;;;11.20;99.90;;;;;;5056474;28;20476;-68
2023/01/06 06:57:25;;;;;;;;;;;11.20;99.90;;;;;;5064935;28;20374;-70
2023/01/06 06:59:51;;;;;;;;;;;11.30;99.90;;;;;;5053049;28;20293;-69
2023/01/06 07:02:16;;;;;;;;;;;11.40;99.90;;;;;;5045540;28;19913;-69
2023/01/06 07:04:42;;;;;;;;;;;11.30;99.90;;;;;;5051837;28;19920;-69
2023/01/06 07:07:07;;;;;;;;;;;11.20;99.90;;;;;;5048665;28;19913;-69
2023/01/06 07:09:33;;;;;;;;;;;11.20;99.90;;;;;;5057858;28;20606;-69
2023/01/06 07:11:58;;;;;;;;;;;11.10;99.90;;;;;;5051507;28;19952;-68
2023/01/06 07:14:23;;;;;;;;;;;11.00;99.90;;;;;;5045796;28;19927;-69
2023/01/06 07:16:49;;;;;;;;;;;10.90;99.90;;;;;;5051667;28;19919;-69
2023/01/06 07:19:14;;;;;;;;;;;10.90;99.90;;;;;;5059503;28;19943;-69
2023/01/06 07:21:40;;;;;;;;;;;10.90;99.90;;;;;;5060752;28;20318;-70
2023/01/06 07:24:05;;;;;;;;;;;10.80;99.90;;;;;;5052624;28;20282;-69
2023/01/06 07:26:31;;;;;;;;;;;10.80;99.90;;;;;;5050801;28;19966;-68
2023/01/06 07:28:56;;;;;;;;;;;10.80;99.90;;;;;;5055678;28;19917;-69
2023/01/06 07:31:22;;;;;;;;;;;10.80;99.90;;;;;;5049852;28;19967;-70
2023/01/06 07:33:47;;;;;;;;;;;10.80;99.90;;;;;;5051911;28;19929;-69
2023/01/06 07:36:13;;;;;;;;;;;10.80;99.90;;;;;;5052733;28;19913;-70
2023/01/06 07:38:38;;;;;;;;;;;10.80;99.90;;;;;;5048816;28;19986;-69
2023/01/06 07:41:03;;;;;;;;;;;10.80;99.90;;;;;;5046414;28;19917;-68
2023/01/06 07:43:29;;;;;;;;;;;10.90;99.90;;;;;;5052021;28;19953;-67
2023/01/06 07:45:54;;;;;;;;;;;11.00;99.90;;;;;;5048833;28;19912;-70
2023/01/06 07:48:20;;;;;;;;;;;11.00;99.90;;;;;;5059831;28;19932;-69
2023/01/06 07:50:45;;;;;;;;;;;11.10;99.90;;;;;;5045980;28;20044;-69
2023/01/06 07:53:11;;;;;;;;;;;11.10;99.90;;;;;;5050587;28;20688;-69
2023/01/06 07:55:37;;;;;;;;;;;11.00;99.90;;;;;;5049438;28;19913;-70
2023/01/06 07:58:03;;;;;;;;;;;11.10;99.90;;;;;;5061013;28;19917;-69
2023/01/06 08:00:28;;;;;;;;;;;11.10;99.90;;;;;;5054239;28;19927;-68
2023/01/06 08:02:54;;;;;;;;;;;11.10;99.90;;;;;;5049702;28;20297;-69
2023/01/06 08:05:19;;;;;;;;;;;11.10;99.90;;;;;;5047414;28;20305;-69
2023/01/06 08:07:45;;;;;;;;;;;11.10;99.90;;;;;;5055155;28;19995;-69
2023/01/06 08:10:10;;;;;;;;;;;11.10;99.90;;;;;;5049639;28;19947;-70
2023/01/06 08:12:36;;;;;;;;;;;11.10;99.90;;;;;;5056620;28;19916;-70
2023/01/06 08:15:01;;;;;;;;;;;11.10;99.90;;;;;;5053957;28;19913;-69
2023/01/06 08:17:27;;;;;;;;;;;11.20;99.90;;;;;;5046088;28;19913;-68
2023/01/06 08:19:52;;;;;;;;;;;11.20;99.90;;;;;;5057682;28;19917;-69
2023/01/06 08:22:18;;;;;;;;;;;11.20;99.90;;;;;;5051695;28;19970;-68
2023/01/06 08:24:43;;;;;;;;;;;11.20;99.90;;;;;;5043496;28;19912;-68
2023/01/06 08:27:09;;;;;;;;;;;11.30;99.90;;;;;;5048342;28;19913;-69
2023/01/06 08:29:34;;;;;;;;;;;11.20;99.90;;;;;;5044499;28;19921;-69
2023/01/06 08:32:00;;;;;;;;;;;11.20;99.90;;;;;;5049181;28;19913;-69
2023/01/06 08:34:25;;;;;;;;;;;11.40;99.90;;;;;;5049348;28;20437;-68
2023/01/06 08:36:51;;;;;;;;;;;11.40;99.90;;;;;;5047862;28;20532;-67
2023/01/06 08:39:17;;;;;;;;;;;11.30;99.90;;;;;;5047357;28;20402;-60
2023/01/06 08:41:42;;;;;;;;;;;11.40;99.90;;;;;;5047452;28;19916;-60
2023/01/06 08:44:08;;;;;;;;;;;11.40;99.90;;;;;;5042796;28;19917;-59
2023/01/06 08:46:33;;;;;;;;;;;11.40;99.90;;;;;;5047403;28;20368;-59
2023/01/06 08:48:59;;;;;;;;;;;11.40;99.90;;;;;;5051538;28;19917;-60
2023/01/06 08:51:25;;;;;;;;;;;11.40;99.90;;;;;;5055328;28;19963;-59
2023/01/06 08:53:51;;;;;;;;;;;11.40;99.90;;;;;;5045653;28;19936;-58
2023/01/06 08:56:21;;;;;;;;;;;11.40;99.90;;;;;;5050225;28;19913;-57
2023/01/06 08:59:04;;;;;;;;;;;11.40;99.90;;;;;;5051443;28;20443;-56
2023/01/06 09:01:31;;;;;;;;;;;11.40;99.90;;;;;;5042801;28;19967;-57
2023/01/06 09:03:58;;;;;;;;;;;11.40;99.90;;;;;;5043982;28;19947;-58
2023/01/06 09:06:24;;;;;;;;;;;11.50;99.90;;;;;;5037924;28;19912;-58
2023/01/06 09:08:50;;;;;;;;;;;11.50;99.90;;;;;;5048941;28;19913;-60
2023/01/06 09:11:16;;;;;;;;;;;11.50;99.90;;;;;;5047778;28;20061;-59
2023/01/06 09:13:42;;;;;;;;;;;11.50;99.90;;;;;;5043488;28;20394;-54
2023/01/06 09:16:08;;;;;;;;;;;11.50;99.90;;;;;;5062717;28;19913;-60
2023/01/06 09:18:34;;;;;;;;;;;11.60;99.90;;;;;;5051527;28;20255;-60
2023/01/06 09:20:59;;;;;;;;;;;11.60;99.90;;;;;;5039835;28;19920;-53
2023/01/06 09:23:25;;;;;;;;;;;11.60;99.90;;;;;;5043636;28;19920;-59
2023/01/06 09:25:51;;;;;;;;;;;11.70;99.90;;;;;;5035605;28;20423;-58
2023/01/06 09:28:16;;;;;;;;;;;11.60;99.90;;;;;;5044025;28;19920;-60
2023/01/06 09:30:45;;;;;;;;;;;11.70;99.90;;;;;;5048347;28;19919;-60
2023/01/06 09:33:10;;;;;;;;;;;11.80;99.90;;;;;;5045783;28;19925;-61
2023/01/06 09:35:36;;;;;;;;;;;11.80;99.90;;;;;;5045089;28;20732;-57
2023/01/06 09:38:02;;;;;;;;;;;11.80;99.90;;;;;;5048412;28;20381;-59
2023/01/06 09:40:41;;;;;;;;;;;11.80;99.90;;;;;;5049413;28;19913;-57
2023/01/06 09:43:08;;;;;;;;;;;11.90;99.90;;;;;;5062292;22;19928;-60
2023/01/06 09:45:36;;;;;;;;;;;11.90;99.90;;;;;;5056320;28;20294;-57
2023/01/06 09:48:04;;;;;;;;;;;12.00;99.90;;;;;;5076611;28;19959;-60
2023/01/06 09:50:39;;;;;;;;;;;11.90;99.90;;;;;;5057404;28;19952;-56
2023/01/06 09:53:16;;;;;;;;;;;12.00;99.90;;;;;;5057507;28;19973;-60
2023/01/06 09:55:56;;;;;;;;;;;11.90;99.90;;;;;;5058847;28;20007;-57
2023/01/06 09:58:39;;;;;;;;;;;11.90;99.90;;;;;;5060241;28;20007;-56
2023/01/06 10:01:07;;;;;;;;;;;11.90;99.90;;;;;;5057332;28;20007;-57
2023/01/06 10:03:34;;;;;;;;;;;11.90;99.90;;;;;;5057455;28;20360;-57
2023/01/06 10:06:02;;;;;;;;;;;11.90;99.90;;;;;;5052208;28;19967;-59
2023/01/06 10:08:31;;;;;;;;;;;12.00;99.90;;;;;;5057277;28;19923;-59
2023/01/06 10:10:56;;;;;;;;;;;12.00;99.90;;;;;;5059403;28;19986;-59
2023/01/06 10:13:52;;;;;;;;;;;12.00;99.90;;;;;;5055297;28;20350;-59
2023/01/06 10:16:37;;;;;;;;;;;12.00;99.90;;;;;;5045345;28;19920;-58
2023/01/06 10:19:15;;;;;;;;;;;12.10;99.90;;;;;;5064597;28;19932;-60
2023/01/06 10:21:46;;;;;;;;;;;12.10;99.90;;;;;;5053603;28;19966;-60
2023/01/06 10:24:32;;;;;;;;;;;12.00;99.90;;;;;;5057144;28;19912;-60
2023/01/06 10:27:00;;;;;;;;;;;11.80;99.90;;;;;;5057821;28;19920;-56
2023/01/06 10:29:31;;;;;;;;;;;11.70;99.90;;;;;;5055115;28;19917;-56
2023/01/06 10:31:58;;;;;;;;;;;11.70;99.90;;;;;;5075368;28;20266;-57
2023/01/06 10:34:25;;;;;;;;;;;11.70;99.90;;;;;;5054814;28;20011;-59
2023/01/06 10:37:15;;;;;;;;;;;11.70;99.90;;;;;;5056052;28;19938;-58
2023/01/06 10:39:41;;;;;;;;;;;11.80;99.90;;;;;;5034428;28;19920;-58
2023/01/06 10:45:03;;;;;;;;;;;11.80;99.90;;;;;;5055338;28;19924;-58
2023/01/06 10:47:30;;;;;;;;;;;11.70;99.90;;;;;;5054566;28;19913;-58
2023/01/06 10:49:57;;;;;;;;;;;11.60;99.90;;;;;;5056786;28;19920;-58
2023/01/06 10:52:23;;;;;;;;;;;11.70;99.90;;;;;;5069648;28;19916;-59
2023/01/06 10:54:50;;;;;;;;;;;11.60;99.90;;;;;;5063182;28;20023;-58
2023/01/06 10:57:21;;;;;;;;;;;11.70;99.90;;;;;;5055754;28;19924;-60
2023/01/06 11:00:05;;;;;;;;;;;11.70;99.90;;;;;;5060698;28;19996;-59
2023/01/06 11:02:31;;;;;;;;;;;11.70;99.90;;;;;;5059612;28;20046;-60
2023/01/06 11:04:59;;;;;;;;;;;11.70;99.90;;;;;;5060658;28;20016;-59
2023/01/06 11:07:25;;;;;;;;;;;11.80;99.90;;;;;;5057194;28;19923;-60
2023/01/06 11:09:50;;;;;;;;;;;11.90;99.90;;;;;;5060119;28;20349;-60
2023/01/06 11:12:18;;;;;;;;;;;11.90;99.90;;;;;;5057589;28;19920;-59
2023/01/06 11:14:49;;;;;;;;;;;12.00;99.90;;;;;;5058564;28;19920;-59
2023/01/06 11:17:15;;;;;;;;;;;12.10;99.90;;;;;;5064338;28;19913;-59
2023/01/06 11:19:44;;;;;;;;;;;12.30;99.90;;;;;;5057621;28;19913;-57
2023/01/06 11:22:45;;;;;;;;;;;12.30;99.90;;;;;;5058040;28;19913;-58
2023/01/06 11:25:21;;;;;;;;;;;12.30;99.90;;;;;;4976762;28;19981;-58
2023/01/06 11:27:48;;;;;;;;;;;12.40;99.90;;;;;;5046953;28;19913;-58
2023/01/06 11:30:24;;;;;;;;;;;12.40;99.90;;;;;;5055300;28;19912;-59
2023/01/06 11:32:49;;;;;;;;;;;12.40;99.90;;;;;;5056272;28;19972;-59
2023/01/06 11:35:18;;;;;;;;;;;12.30;99.90;;;;;;5053814;28;20581;-55
2023/01/06 11:37:44;;;;;;;;;;;12.30;99.90;;;;;;5057148;28;20477;-58
2023/01/06 11:40:29;;;;;;;;;;;12.30;99.90;;;;;;5066946;28;19912;-58
2023/01/06 11:42:56;;;;;;;;;;;12.20;99.90;;;;;;5061925;28;19927;-57
2023/01/06 11:45:27;;;;;;;;;;;12.10;99.90;;;;;;5055435;28;19931;-60
2023/01/06 11:47:53;;;;;;;;;;;12.10;99.90;;;;;;5061752;28;19947;-60
2023/01/06 11:50:19;;;;;;;;;;;12.10;99.90;;;;;;5063971;28;20026;-58
2023/01/06 11:52:56;;;;;;;;;;;12.10;99.90;;;;;;5062632;28;19917;-57
2023/01/06 11:55:22;;;;;;;;;;;12.00;99.90;;;;;;5061469;28;20000;-58
2023/01/06 11:58:06;;;;;;;;;;;12.00;99.90;;;;;;5060166;28;20007;-60
2023/01/06 12:00:50;;;;;;;;;;;11.70;99.90;;;;;;5063094;28;19920;-57
2023/01/06 12:03:22;;;;;;;;;;;11.70;99.90;;;;;;5058246;28;19909;-59
2023/01/06 12:05:55;;;;;;;;;;;11.70;99.90;;;;;;5062871;28;19916;-59
2023/01/06 12:08:27;;;;;;;;;;;11.70;99.90;;;;;;5057818;28;20370;-58
2023/01/06 12:10:55;;;;;;;;;;;11.80;99.90;;;;;;5061071;28;20373;-60
2023/01/06 12:13:21;;;;;;;;;;;11.70;99.90;;;;;;5055165;28;19920;-59
2023/01/06 12:15:50;;;;;;;;;;;11.60;99.90;;;;;;5063092;28;20282;-58
2023/01/06 12:18:18;;;;;;;;;;;11.70;99.90;;;;;;5064748;28;19913;-58
2023/01/06 12:20:46;;;;;;;;;;;11.70;99.90;;;;;;5058553;28;19912;-56
2023/01/06 12:23:11;;;;;;;;;;;11.70;99.90;;;;;;5056165;28;20007;-58
2023/01/06 12:25:40;;;;;;;;;;;11.60;99.90;;;;;;5065986;28;19999;-57
2023/01/06 12:28:09;;;;;;;;;;;11.60;99.90;;;;;;5061333;28;19912;-60
2023/01/06 12:30:42;;;;;;;;;;;11.60;99.90;;;;;;5063824;28;19916;-59
2023/01/06 12:33:12;;;;;;;;;;;11.70;99.90;;;;;;5059438;28;19955;-57
2023/01/06 12:35:38;;;;;;;;;;;11.70;99.90;;;;;;5064107;28;19996;-59
2023/01/06 12:38:23;;;;;;;;;;;11.70;99.90;;;;;;5060582;28;19912;-59
2023/01/06 12:40:53;;;;;;;;;;;11.70;99.90;;;;;;5057500;28;19963;-58
2023/01/06 12:43:20;;;;;;;;;;;11.70;99.90;;;;;;5060732;28;19925;-59
2023/01/06 12:45:54;;;;;;;;;;;11.70;99.90;;;;;;5055805;28;19920;-58
2023/01/06 12:48:37;;;;;;;;;;;11.70;99.90;;;;;;5057975;28;19916;-59
2023/01/06 12:51:23;;;;;;;;;;;11.60;99.90;;;;;;5051508;28;19966;-58
2023/01/06 12:53:58;;;;;;;;;;;11.70;99.90;;;;;;5060850;28;20451;-58
2023/01/06 12:56:39;;;;;;;;;;;11.80;99.90;;;;;;5059053;28;19921;-59
2023/01/06 12:59:23;;;;;;;;;;;11.80;99.90;;;;;;5057278;28;19916;-56
2023/01/06 13:01:54;;;;;;;;;;;11.90;99.90;;;;;;5060182;28;19955;-59
2023/01/06 13:04:38;;;;;;;;;;;11.90;99.90;;;;;;5056870;28;19939;-58
2023/01/06 13:07:04;;;;;;;;;;;11.90;99.90;;;;;;5060859;28;20487;-58
2023/01/06 13:10:08;;;;;;;;;;;11.90;99.90;;;;;;5052501;28;19988;-57
2023/01/06 13:12:52;;;;;;;;;;;12.10;99.90;;;;;;5022855;28;19917;-58
2023/01/06 13:15:23;;;;;;;;;;;12.10;99.90;;;;;;5021189;28;19967;-60
2023/01/06 13:18:09;;;;;;;;;;;12.20;99.90;;;;;;5041403;28;19917;-58
2023/01/06 13:20:36;;;;;;;;;;;12.20;99.90;;;;;;5054309;28;19960;-59
2023/01/06 13:23:18;;;;;;;;;;;12.10;99.90;;;;;;5053218;28;20330;-59
2023/01/06 13:26:01;;;;;;;;;;;12.20;99.90;;;;;;5049147;28;20076;-55
2023/01/06 13:28:45;;;;;;;;;;;12.10;99.90;;;;;;5053184;28;19912;-57
2023/01/06 13:31:22;;;;;;;;;;;12.00;99.90;;;;;;5055598;28;19923;-59
2023/01/06 13:33:47;;;;;;;;;;;12.00;99.90;;;;;;5055996;28;19952;-59
2023/01/06 13:36:41;;;;;;;;;;;12.00;99.90;;;;;;5055540;28;20413;-60
2023/01/06 13:39:16;;;;;;;;;;;12.00;99.90;;;;;;5051080;28;19970;-58
2023/01/06 13:41:43;;;;;;;;;;;12.00;99.90;;;;;;5059951;28;20308;-59
2023/01/06 13:44:14;;;;;;;;;;;12.00;99.90;;;;;;5060092;28;19942;-60
2023/01/06 13:46:41;;;;;;;;;;;12.00;99.90;;;;;;5056902;28;19912;-59
2023/01/06 13:49:07;;;;;;;;;;;12.00;99.90;;;;;;5060446;28;19982;-59
2023/01/06 13:51:34;;;;;;;;;;;12.00;99.90;;;;;;5057035;28;19913;-58
2023/01/06 13:54:01;;;;;;;;;;;12.00;99.90;;;;;;5061957;28;19930;-58
2023/01/06 13:56:31;;;;;;;;;;;12.00;99.90;;;;;;5063385;28;19913;-58
2023/01/06 13:59:14;;;;;;;;;;;12.00;99.90;;;;;;5050912;28;19955;-60
2023/01/06 14:01:40;;;;;;;;;;;12.00;99.90;;;;;;5051154;28;19920;-58
2023/01/06 14:04:24;;;;;;;;;;;11.90;99.90;;;;;;5050445;28;19913;-59
2023/01/06 14:06:49;;;;;;;;;;;11.90;99.90;;;;;;5051184;28;19909;-60
2023/01/06 14:09:16;;;;;;;;;;;11.90;99.90;;;;;;5051113;28;20728;-59
2023/01/06 14:11:42;;;;;;;;;;;11.90;99.90;;;;;;5056556;28;20393;-60
2023/01/06 14:14:23;;;;;;;;;;;11.80;99.90;;;;;;5065015;28;19912;-58
2023/01/06 14:16:50;;;;;;;;;;;11.80;99.90;;;;;;5054183;28;19916;-60
2023/01/06 14:19:16;;;;;;;;;;;11.80;99.90;;;;;;5054961;28;19970;-58
2023/01/06 14:21:42;;;;;;;;;;;11.90;99.90;;;;;;5056287;28;19967;-60
2023/01/06 14:24:27;;;;;;;;;;;11.90;99.90;;;;;;5050615;28;19909;-58
2023/01/06 14:26:58;;;;;;;;;;;12.00;99.90;;;;;;5053511;28;19909;-59
2023/01/06 14:29:39;;;;;;;;;;;12.00;99.90;;;;;;5052537;28;20358;-59
2023/01/06 14:32:09;;;;;;;;;;;12.00;99.90;;;;;;5057621;28;19916;-58
2023/01/06 14:34:35;;;;;;;;;;;12.00;99.90;;;;;;5057066;28;20290;-58